Terminal Aerodrome Forecast
Issued by NWS

Home | Current Version | Previous Version | Graphics & Text | Print | Product List | Glossary On
Versions: 1 2 3 4 5 6 7 8 9 10 11 12 13 14 15 16 17
000
FTUS43 KMPX 131142
TAFRWF
TAF
KRWF 131142Z 1312/1412 31018G32KT P6SM BKN120
     FM131300 32021G37KT P6SM VCSH OVC015
     FM131500 33023G41KT P6SM OVC020
     FM132200 33017G28KT P6SM OVC030
     FM140300 32009KT P6SM BKN025 OVC050=

USA.gov is the U.S. government's official web portal to all federal, state and local government web resources and services.